Time;durP1;ratioP1;P1;durP2;ratioP2;P2;SDS_P1;SDS_P2;PMS_P1;PMS_P2;Temp;Humidity;BMP_temperature;BMP_pressure;BME280_temperature;BME280_humidity;BME280_pressure;Samples;Min_cycle;Max_cycle;Signal;HPM_P1;HPM_P2
2023/05/01 00:03:34;;;;;;;7.15;4.95;;;;;10.10;96363.00;;;;8277368;28;20592;-67
2023/05/01 00:07:41;;;;;;;7.77;4.90;;;;;10.10;96355.00;;;;8276022;28;20207;-68
2023/05/01 00:11:45;;;;;;;8.50;4.35;;;;;10.10;96354.00;;;;8283719;28;20205;-68
2023/05/01 00:15:50;;;;;;;9.33;5.43;;;;;10.00;96347.00;;;;8275933;28;20578;-68
2023/05/01 00:19:56;;;;;;;8.73;5.60;;;;;10.00;96347.00;;;;8290485;28;20222;-67
2023/05/01 00:24:00;;;;;;;8.47;5.00;;;;;9.90;96341.00;;;;8266496;28;20256;-67
2023/05/01 00:28:06;;;;;;;9.37;5.60;;;;;9.90;96339.00;;;;8286526;28;20276;-67
2023/05/01 00:32:14;;;;;;;8.13;5.17;;;;;9.90;96342.00;;;;8284674;28;20211;-67
2023/05/01 00:36:19;;;;;;;8.30;5.93;;;;;9.80;96319.00;;;;8284812;28;20198;-67
2023/05/01 00:40:22;;;;;;;8.13;5.30;;;;;9.80;96331.00;;;;8282427;28;20202;-67
2023/05/01 00:44:25;;;;;;;9.37;5.80;;;;;9.70;96326.00;;;;8263295;28;20230;-67
2023/05/01 00:48:31;;;;;;;8.13;5.28;;;;;9.70;96322.00;;;;8283561;28;20194;-67
2023/05/01 00:52:35;;;;;;;9.17;5.83;;;;;9.60;96322.00;;;;8267930;28;20372;-67
2023/05/01 00:56:39;;;;;;;7.03;5.70;;;;;9.50;96317.00;;;;8266132;28;20206;-68
2023/05/01 01:00:42;;;;;;;9.80;5.47;;;;;9.50;96314.00;;;;8266472;28;20204;-68
2023/05/01 01:04:50;;;;;;;8.27;5.60;;;;;9.40;96295.00;;;;8258169;28;20585;-68
2023/05/01 01:09:06;;;;;;;8.77;5.70;;;;;9.40;96298.00;;;;8255242;28;20195;-68
2023/05/01 01:13:15;;;;;;;8.57;5.80;;;;;9.40;96297.00;;;;8252708;28;20732;-68
2023/05/01 01:17:28;;;;;;;7.27;5.50;;;;;9.40;96290.00;;;;8253113;28;20230;-68
2023/05/01 01:21:38;;;;;;;11.43;6.53;;;;;9.30;96281.00;;;;8254348;28;20694;-68
2023/05/01 01:26:07;;;;;;;10.50;6.43;;;;;9.30;96279.00;;;;8257490;28;20202;-67
2023/05/01 01:30:58;;;;;;;10.97;5.90;;;;;9.30;96273.00;;;;8260985;28;20230;-68
2023/05/01 01:35:10;;;;;;;13.33;6.50;;;;;9.20;96274.00;;;;8250798;28;20199;-68
2023/05/01 01:39:24;;;;;;;11.07;6.60;;;;;9.10;96271.00;;;;8250863;28;20251;-68
2023/05/01 01:43:35;;;;;;;11.73;6.57;;;;;9.10;96267.00;;;;8263983;28;20207;-68
2023/05/01 01:47:42;;;;;;;9.73;6.87;;;;;9.00;96263.00;;;;8256975;28;20838;-67
2023/05/01 02:48:17;;;;;;;13.03;8.40;;;;;8.40;96208.00;;;;7812036;27;18158213;-69
2023/05/01 02:52:34;;;;;;;16.50;8.03;;;;;8.30;96199.00;;;;8427573;28;20218;-68
2023/05/01 02:56:42;;;;;;;15.60;7.97;;;;;8.30;96193.00;;;;8446639;28;20198;-68
2023/05/01 03:05:02;;;;;;;13.03;8.13;;;;;8.20;96195.00;;;;8268492;28;20221;-68
2023/05/01 03:09:06;;;;;;;15.33;9.00;;;;;8.10;96182.00;;;;8278590;28;20256;-68
2023/05/01 03:13:10;;;;;;;14.53;8.83;;;;;8.10;96189.00;;;;8278145;28;20198;-68
2023/05/01 03:17:13;;;;;;;13.37;8.43;;;;;8.10;96187.00;;;;8278849;28;20230;-68
2023/05/01 03:21:17;;;;;;;15.73;8.67;;;;;8.00;96181.00;;;;8281145;28;20265;-68
2023/05/01 03:25:22;;;;;;;16.97;9.33;;;;;7.90;96177.00;;;;8279891;28;20230;-68
2023/05/01 03:29:26;;;;;;;15.80;8.87;;;;;7.90;96177.00;;;;8279095;28;20636;-68
2023/05/01 03:33:30;;;;;;;12.63;8.27;;;;;7.80;96173.00;;;;8279336;28;20206;-68
2023/05/01 03:37:35;;;;;;;18.93;9.13;;;;;7.80;96177.00;;;;8276190;28;20202;-68
2023/05/01 03:41:38;;;;;;;15.30;9.10;;;;;7.70;96180.00;;;;8278160;28;20207;-68
2023/05/01 03:45:41;;;;;;;16.10;9.13;;;;;7.70;96174.00;;;;8278522;28;20237;-68
2023/05/01 03:49:47;;;;;;;16.30;10.13;;;;;7.60;96168.00;;;;8278393;28;20202;-68
2023/05/01 03:53:51;;;;;;;15.23;7.67;;;;;7.60;96161.00;;;;8280574;28;20804;-68
2023/05/01 03:58:03;;;;;;;17.27;8.83;;;;;7.70;96159.00;;;;8258807;28;20289;-68
2023/05/01 04:02:06;;;;;;;18.73;10.33;;;;;7.70;96151.00;;;;8255350;28;20278;-68
2023/05/01 04:06:17;;;;;;;18.47;9.53;;;;;7.80;96156.00;;;;8252080;28;20222;-68
2023/05/01 04:10:21;;;;;;;18.63;10.23;;;;;7.80;96149.00;;;;8255422;28;20198;-68
2023/05/01 04:14:25;;;;;;;15.83;9.70;;;;;7.80;96145.00;;;;8251892;28;20203;-68
2023/05/01 04:18:34;;;;;;;23.73;10.27;;;;;7.80;96156.00;;;;8255998;28;20198;-68
2023/05/01 04:22:41;;;;;;;18.37;9.83;;;;;7.80;96151.00;;;;8256932;28;20217;-68
2023/05/01 04:26:45;;;;;;;14.53;9.77;;;;;7.90;96143.00;;;;8254110;28;20249;-68
2023/05/01 04:30:48;;;;;;;21.00;10.03;;;;;7.90;96145.00;;;;8255782;28;20837;-68
2023/05/01 04:34:52;;;;;;;23.03;11.37;;;;;8.00;96140.00;;;;8254968;28;20207;-68
2023/05/01 04:38:55;;;;;;;21.50;10.60;;;;;8.10;96146.00;;;;8255495;28;20619;-68
2023/05/01 04:43:00;;;;;;;16.70;10.37;;;;;8.10;96151.00;;;;8254619;28;20207;-68
2023/05/01 04:47:06;;;;;;;20.90;9.53;;;;;8.20;96155.00;;;;8249015;28;20331;-68
2023/05/01 04:51:09;;;;;;;15.00;9.80;;;;;8.30;96157.00;;;;8242985;28;20203;-68
2023/05/01 04:55:12;;;;;;;17.77;10.40;;;;;8.30;96161.00;;;;8253592;28;20202;-68
2023/05/01 04:59:18;;;;;;;20.83;10.70;;;;;8.50;96153.00;;;;8248759;28;20210;-68
2023/05/01 05:03:21;;;;;;;20.10;9.90;;;;;8.50;96156.00;;;;8254382;28;20234;-68
2023/05/01 05:07:27;;;;;;;24.53;11.10;;;;;8.60;96156.00;;;;8254293;28;20241;-68
2023/05/01 05:11:33;;;;;;;19.10;10.10;;;;;8.70;96154.00;;;;8254315;28;20253;-68
2023/05/01 05:15:37;;;;;;;16.27;9.97;;;;;8.80;96153.00;;;;8255201;28;20769;-69
2023/05/01 05:19:41;;;;;;;25.87;11.13;;;;;8.90;96146.00;;;;8249814;28;20612;-69
2023/05/01 05:23:44;;;;;;;20.73;10.73;;;;;9.00;96156.00;;;;8251659;28;20656;-69
2023/05/01 05:27:47;;;;;;;19.37;10.63;;;;;9.10;96154.00;;;;8254721;28;20293;-69
2023/05/01 05:31:52;;;;;;;22.40;11.37;;;;;9.20;96150.00;;;;8253165;28;20195;-69
2023/05/01 05:35:56;;;;;;;22.20;11.30;;;;;9.30;96155.00;;;;8254017;28;20211;-69
2023/05/01 05:39:59;;;;;;;19.37;11.00;;;;;9.30;96148.00;;;;8252051;28;20214;-69
2023/05/01 05:44:06;;;;;;;23.13;10.57;;;;;9.50;96149.00;;;;8247533;28;20293;-68
2023/05/01 05:48:11;;;;;;;19.20;11.10;;;;;9.60;96152.00;;;;8254879;28;20227;-68
2023/05/01 05:52:14;;;;;;;16.53;9.70;;;;;9.80;96152.00;;;;8252482;28;20230;-68
2023/05/01 05:56:18;;;;;;;17.93;10.37;;;;;10.00;96151.00;;;;8250001;28;20258;-68
2023/05/01 06:00:22;;;;;;;19.17;11.10;;;;;10.20;96150.00;;;;8249612;28;20289;-68
2023/05/01 06:04:26;;;;;;;17.60;10.70;;;;;10.40;96154.00;;;;8251118;28;20277;-68
2023/05/01 06:08:34;;;;;;;22.65;11.07;;;;;10.60;96156.00;;;;8247777;28;20560;-68
2023/05/01 06:12:39;;;;;;;18.80;10.98;;;;;10.80;96144.00;;;;8251809;28;20206;-68
2023/05/01 06:16:51;;;;;;;20.67;10.33;;;;;10.90;96151.00;;;;8249955;28;20542;-68
2023/05/01 06:20:56;;;;;;;20.02;11.55;;;;;11.10;96138.00;;;;8248205;28;20253;-68
2023/05/01 06:24:59;;;;;;;23.63;10.68;;;;;11.20;96142.00;;;;8249009;28;20230;-68
2023/05/01 06:29:06;;;;;;;19.65;11.60;;;;;11.30;96143.00;;;;8243453;28;20206;-69
2023/05/01 06:33:11;;;;;;;20.80;11.90;;;;;11.40;96140.00;;;;8246937;28;20616;-68
2023/05/01 06:37:17;;;;;;;22.52;11.25;;;;;11.60;96126.00;;;;8250777;28;20249;-68
2023/05/01 06:41:24;;;;;;;28.77;13.43;;;;;11.90;96128.00;;;;8250402;28;20200;-68
2023/05/01 06:45:34;;;;;;;28.95;11.50;;;;;12.10;96127.00;;;;8246538;28;20270;-68
2023/05/01 06:49:37;;;;;;;20.45;11.80;;;;;12.40;96133.00;;;;8248567;28;20206;-68
2023/05/01 06:53:42;;;;;;;20.80;11.57;;;;;12.60;96124.00;;;;8239548;28;20207;-68
2023/05/01 06:57:46;;;;;;;17.08;10.55;;;;;12.80;96116.00;;;;8241837;28;20210;-69
2023/05/01 07:01:52;;;;;;;23.13;11.35;;;;;12.80;96125.00;;;;8241906;28;20235;-68
2023/05/01 07:05:59;;;;;;;17.40;10.85;;;;;13.10;96129.00;;;;8243830;28;20240;-68
2023/05/01 07:10:04;;;;;;;15.60;10.55;;;;;13.40;96136.00;;;;8245027;28;20209;-68
2023/05/01 07:14:07;;;;;;;16.65;10.13;;;;;13.80;96138.00;;;;8243321;28;20202;-69
2023/05/01 07:18:12;;;;;;;16.50;9.77;;;;;13.90;96136.00;;;;8246798;28;20206;-68
2023/05/01 07:22:15;;;;;;;16.33;9.95;;;;;14.20;96129.00;;;;8253090;28;20214;-65
2023/05/01 07:26:20;;;;;;;15.88;9.95;;;;;14.70;96131.00;;;;8243933;28;20683;-66
2023/05/01 07:30:25;;;;;;;16.98;10.32;;;;;15.10;96124.00;;;;8235664;28;20211;-66
2023/05/01 07:34:28;;;;;;;20.58;11.18;;;;;15.70;96124.00;;;;8254819;28;20209;-65
2023/05/01 07:38:34;;;;;;;16.50;10.45;;;;;16.40;96121.00;;;;8241067;28;20833;-68
2023/05/01 07:42:44;;;;;;;16.38;10.63;;;;;16.50;96118.00;;;;8246771;28;20262;-68
2023/05/01 07:46:49;;;;;;;14.45;8.98;;;;;17.20;96127.00;;;;8247253;28;20223;-67
2023/05/01 07:50:53;;;;;;;14.35;8.98;;;;;17.60;96127.00;;;;8252965;28;20246;-68
2023/05/01 07:54:56;;;;;;;14.55;8.80;;;;;18.00;96133.00;;;;8254953;28;20198;-67
2023/05/01 07:59:03;;;;;;;10.50;7.65;;;;;18.60;96132.00;;;;8251660;28;21680;-68
2023/05/01 08:03:11;;;;;;;11.52;7.65;;;;;19.00;96133.00;;;;8251929;28;20230;-67
2023/05/01 08:07:16;;;;;;;10.85;7.47;;;;;19.10;96137.00;;;;8241911;28;20325;-67
2023/05/01 08:11:20;;;;;;;9.10;7.25;;;;;19.40;96132.00;;;;8244754;28;20199;-68
2023/05/01 08:15:27;;;;;;;16.30;7.63;;;;;19.00;96129.00;;;;8252821;28;20195;-67
2023/05/01 08:19:31;;;;;;;14.75;7.30;;;;;19.10;96132.00;;;;8247752;28;20268;-67
2023/05/01 08:23:34;;;;;;;10.02;6.70;;;;;19.30;96121.00;;;;8251032;28;20207;-67
2023/05/01 08:27:39;;;;;;;13.20;7.50;;;;;19.30;96116.00;;;;8258992;28;20333;-67
2023/05/01 08:31:43;;;;;;;7.88;5.97;;;;;19.20;96118.00;;;;8254523;28;20202;-68
2023/05/01 08:35:47;;;;;;;10.73;5.15;;;;;19.10;96120.00;;;;8257276;28;20203;-68
2023/05/01 08:39:54;;;;;;;7.50;4.60;;;;;19.10;96120.00;;;;8247711;28;20211;-68
2023/05/01 08:44:00;;;;;;;5.43;4.05;;;;;19.30;96115.00;;;;8252753;28;20207;-67
2023/05/01 08:48:12;;;;;;;5.57;4.15;;;;;19.40;96119.00;;;;8256959;28;20314;-67
2023/05/01 08:52:18;;;;;;;8.32;4.25;;;;;19.50;96124.00;;;;8243228;28;20200;-67
2023/05/01 08:56:22;;;;;;;7.75;4.47;;;;;19.60;96118.00;;;;8249427;28;20203;-68
2023/05/01 09:00:33;;;;;;;6.15;4.43;;;;;19.80;96117.00;;;;8246322;28;20822;-68
2023/05/01 09:04:41;;;;;;;5.40;4.38;;;;;19.80;96113.00;;;;8239184;28;20265;-67
2023/05/01 09:08:46;;;;;;;6.03;4.25;;;;;19.70;96113.00;;;;8252607;28;20234;-67
2023/05/01 09:12:59;;;;;;;6.43;4.65;;;;;19.70;96113.00;;;;8245297;28;20537;-67
2023/05/01 09:17:04;;;;;;;8.93;4.95;;;;;19.60;96113.00;;;;8245809;28;20588;-67
2023/05/01 09:21:12;;;;;;;6.65;4.95;;;;;19.70;96123.00;;;;8248804;28;20604;-67
2023/05/01 09:25:18;;;;;;;6.07;4.40;;;;;19.90;96120.00;;;;8247032;28;20212;-67
2023/05/01 09:29:38;;;;;;;9.25;4.47;;;;;20.00;96127.00;;;;8242529;28;20469;-67
2023/05/01 09:33:51;;;;;;;8.75;4.38;;;;;20.30;96118.00;;;;8245526;28;20199;-67
2023/05/01 09:38:02;;;;;;;4.97;4.47;;;;;20.60;96121.00;;;;8243490;28;20203;-67
2023/05/01 09:42:11;;;;;;;6.72;4.57;;;;;20.80;96128.00;;;;8243387;28;20203;-67
2023/05/01 09:46:15;;;;;;;7.70;4.30;;;;;21.10;96123.00;;;;8246472;28;20557;-67
2023/05/01 09:50:30;;;;;;;5.35;4.22;;;;;21.30;96119.00;;;;8242311;28;20246;-67
2023/05/01 09:54:36;;;;;;;6.90;4.18;;;;;21.30;96126.00;;;;8247048;28;20234;-67
2023/05/01 09:58:39;;;;;;;4.68;4.22;;;;;21.70;96123.00;;;;8238909;28;20600;-67
2023/05/01 10:02:45;;;;;;;5.03;4.32;;;;;21.80;96113.00;;;;8238615;28;20230;-67
2023/05/01 10:06:49;;;;;;;4.93;3.90;;;;;21.70;96116.00;;;;8248686;28;20687;-67
2023/05/01 10:11:06;;;;;;;4.85;4.13;;;;;21.50;96119.00;;;;8252111;28;20191;-67
2023/05/01 10:15:10;;;;;;;9.73;4.82;;;;;21.90;96120.00;;;;8243199;28;20187;-67
2023/05/01 10:19:30;;;;;;;4.90;4.30;;;;;22.20;96119.00;;;;8245274;28;20556;-67
2023/05/01 10:23:33;;;;;;;7.53;4.43;;;;;22.50;96127.00;;;;8246368;28;20237;-67
2023/05/01 10:27:38;;;;;;;7.75;6.15;;;;;22.80;96122.00;;;;8236872;28;20238;-66
2023/05/01 10:31:42;;;;;;;10.00;6.88;;;;;23.20;96123.00;;;;8235892;28;20217;-67
2023/05/01 10:35:48;;;;;;;15.10;8.98;;;;;23.50;96121.00;;;;8242205;28;20206;-67
2023/05/01 10:39:52;;;;;;;8.95;4.82;;;;;23.60;96127.00;;;;8244842;28;20254;-67
2023/05/01 10:44:20;;;;;;;8.45;4.78;;;;;23.70;96122.00;;;;8246750;28;20295;-67
2023/05/01 10:48:52;;;;;;;6.13;4.22;;;;;23.60;96124.00;;;;8250228;28;20230;-67
2023/05/01 10:53:17;;;;;;;37.78;20.38;;;;;23.80;96115.00;;;;8237508;28;20199;-67
2023/05/01 10:57:42;;;;;;;11.25;6.10;;;;;24.10;96121.00;;;;8247291;28;20534;-67
2023/05/01 11:01:50;;;;;;;5.75;4.35;;;;;24.30;96112.00;;;;8248770;28;20237;-67
2023/05/01 11:06:07;;;;;;;5.93;4.00;;;;;24.50;96107.00;;;;8249036;28;20206;-67
2023/05/01 11:10:26;;;;;;;5.15;4.55;;;;;24.20;96110.00;;;;8251618;28;20230;-67
2023/05/01 11:15:06;;;;;;;9.35;4.10;;;;;23.90;96099.00;;;;8248577;28;20245;-67
2023/05/01 11:19:32;;;;;;;3.88;3.47;;;;;24.10;96103.00;;;;8249290;28;20191;-67
2023/05/01 11:23:37;;;;;;;4.38;3.97;;;;;24.20;96094.00;;;;8252277;28;20262;-67
2023/05/01 11:27:51;;;;;;;6.72;3.88;;;;;24.20;96096.00;;;;8253120;28;20230;-67
2023/05/01 11:31:57;;;;;;;6.60;4.00;;;;;24.00;96084.00;;;;8249471;28;20199;-68
2023/05/01 11:36:03;;;;;;;6.13;3.60;;;;;23.90;96087.00;;;;8254475;28;20199;-66
2023/05/01 11:40:20;;;;;;;4.10;3.70;;;;;23.90;96080.00;;;;8257104;28;20203;-66
2023/05/01 11:44:23;;;;;;;4.45;3.72;;;;;24.10;96080.00;;;;8246401;28;20210;-66
2023/05/01 11:48:27;;;;;;;6.20;3.40;;;;;24.30;96085.00;;;;8239403;28;20227;-66
2023/05/01 11:52:43;;;;;;;5.60;3.17;;;;;24.40;96084.00;;;;8236276;28;20195;-66
2023/05/01 11:56:47;;;;;;;4.70;4.20;;;;;24.40;96079.00;;;;8237508;28;20207;-66
2023/05/01 12:00:55;;;;;;;5.10;3.50;;;;;24.30;96076.00;;;;8248385;28;20195;-66
2023/05/01 12:05:14;;;;;;;5.75;3.58;;;;;24.20;96074.00;;;;8239256;28;20222;-66
2023/05/01 12:09:21;;;;;;;3.70;3.40;;;;;24.20;96073.00;;;;8248544;28;20591;-68
2023/05/01 12:13:26;;;;;;;4.15;3.67;;;;;24.20;96075.00;;;;8240727;28;20203;-68
2023/05/01 12:17:31;;;;;;;6.05;3.85;;;;;23.70;96076.00;;;;8243677;28;20269;-68
2023/05/01 12:21:35;;;;;;;4.10;3.67;;;;;23.50;96067.00;;;;8249805;28;20206;-67
2023/05/01 12:25:41;;;;;;;4.20;3.70;;;;;23.40;96061.00;;;;8243134;28;20291;-67
2023/05/01 12:29:50;;;;;;;5.55;3.63;;;;;23.40;96067.00;;;;8247262;28;20228;-67
2023/05/01 12:33:56;;;;;;;6.85;3.85;;;;;23.30;96067.00;;;;8251529;28;20192;-67
2023/05/01 12:38:00;;;;;;;3.88;3.38;;;;;23.10;96070.00;;;;8245017;28;20203;-67
2023/05/01 12:42:13;;;;;;;4.07;3.03;;;;;23.00;96060.00;;;;8235828;28;20206;-67
2023/05/01 12:46:17;;;;;;;6.15;3.38;;;;;22.70;96067.00;;;;8241597;28;20195;-68
2023/05/01 12:50:23;;;;;;;3.97;3.55;;;;;22.40;96062.00;;;;8240011;28;20230;-67
2023/05/01 12:54:32;;;;;;;4.93;3.88;;;;;22.20;96057.00;;;;8249957;28;20211;-67
2023/05/01 12:58:40;;;;;;;5.10;3.60;;;;;21.80;96063.00;;;;8247932;28;20280;-68
2023/05/01 13:02:43;;;;;;;5.07;3.33;;;;;21.50;96063.00;;;;8241923;28;20230;-67
2023/05/01 13:06:48;;;;;;;6.40;3.92;;;;;21.40;96059.00;;;;8247133;28;20210;-67
2023/05/01 13:10:54;;;;;;;6.90;4.40;;;;;21.20;96055.00;;;;8247891;28;20877;-67
2023/05/01 13:15:00;;;;;;;6.57;4.85;;;;;20.80;96047.00;;;;8243206;28;20199;-67
2023/05/01 13:19:07;;;;;;;7.55;4.57;;;;;20.30;96054.00;;;;8237089;28;20770;-67
2023/05/01 13:23:12;;;;;;;6.07;4.28;;;;;19.90;96053.00;;;;8249700;28;20210;-67
2023/05/01 13:27:21;;;;;;;7.68;5.45;;;;;19.70;96055.00;;;;8246426;28;20200;-67
2023/05/01 13:31:26;;;;;;;7.82;5.45;;;;;19.50;96056.00;;;;8247541;28;20202;-67
2023/05/01 13:35:30;;;;;;;9.35;5.47;;;;;19.20;96060.00;;;;8246964;28;20203;-66
2023/05/01 13:39:34;;;;;;;7.25;5.35;;;;;18.70;96063.00;;;;8242295;28;21137;-65
2023/05/01 13:43:39;;;;;;;11.50;6.55;;;;;17.90;96057.00;;;;8241593;28;20750;-66
2023/05/01 13:47:44;;;;;;;8.98;5.70;;;;;17.30;96057.00;;;;8241731;28;20222;-67
2023/05/01 13:51:51;;;;;;;7.60;6.43;;;;;16.80;96060.00;;;;8241402;28;20202;-67
2023/05/01 13:55:57;;;;;;;8.90;6.57;;;;;16.40;96060.00;;;;8243022;28;20217;-67
2023/05/01 14:00:01;;;;;;;10.48;7.10;;;;;16.10;96053.00;;;;8244220;28;20217;-67
2023/05/01 14:04:09;;;;;;;10.70;7.30;;;;;15.80;96060.00;;;;8234902;28;20281;-68
2023/05/01 14:08:14;;;;;;;11.40;7.78;;;;;15.70;96051.00;;;;8244085;28;20806;-68
2023/05/01 14:12:18;;;;;;;11.20;8.20;;;;;15.70;96052.00;;;;8245986;28;20640;-68
2023/05/01 14:16:26;;;;;;;10.13;8.07;;;;;15.60;96054.00;;;;8244293;28;20195;-67
2023/05/01 14:20:33;;;;;;;11.45;8.10;;;;;15.40;96054.00;;;;8240892;28;20205;-66
2023/05/01 14:24:40;;;;;;;13.82;9.60;;;;;15.30;96055.00;;;;8261911;28;20202;-66
2023/05/01 14:28:45;;;;;;;11.60;8.27;;;;;15.30;96057.00;;;;8248328;28;20222;-67
2023/05/01 14:32:49;;;;;;;11.73;8.75;;;;;15.30;96057.00;;;;8238443;28;20593;-67
2023/05/01 14:36:57;;;;;;;11.75;8.70;;;;;15.20;96058.00;;;;8237909;28;20199;-67
2023/05/01 14:41:00;;;;;;;13.55;9.50;;;;;15.30;96064.00;;;;8245450;28;20339;-66
2023/05/01 14:45:05;;;;;;;15.43;9.45;;;;;15.30;96065.00;;;;8247727;28;20521;-67
2023/05/01 14:49:10;;;;;;;16.33;8.85;;;;;15.40;96062.00;;;;8241252;28;20229;-67
2023/05/01 14:53:15;;;;;;;17.33;9.48;;;;;15.20;96062.00;;;;8245608;28;20195;-66
2023/05/01 14:57:19;;;;;;;16.10;10.43;;;;;15.30;96063.00;;;;8241544;28;20230;-66
2023/05/01 15:01:22;;;;;;;13.30;9.23;;;;;15.70;96061.00;;;;8238255;28;20208;-66
2023/05/01 15:05:27;;;;;;;11.57;9.35;;;;;15.80;96060.00;;;;8249282;28;20289;-67
2023/05/01 15:09:32;;;;;;;14.18;8.50;;;;;15.90;96066.00;;;;8245691;28;20394;-65
2023/05/01 15:13:35;;;;;;;11.05;8.38;;;;;16.00;96068.00;;;;8241806;28;20226;-65
2023/05/01 15:17:38;;;;;;;12.45;8.68;;;;;16.10;96068.00;;;;8236529;28;20218;-65
2023/05/01 15:21:41;;;;;;;10.70;8.27;;;;;16.30;96074.00;;;;8250879;28;20203;-66
2023/05/01 15:25:49;;;;;;;13.52;8.65;;;;;16.30;96070.00;;;;8243953;28;20199;-66
2023/05/01 15:29:53;;;;;;;13.32;9.05;;;;;16.20;96078.00;;;;8241941;28;20230;-65
2023/05/01 15:33:56;;;;;;;10.90;8.10;;;;;16.30;96075.00;;;;8244894;28;20230;-66
2023/05/01 15:38:02;;;;;;;10.35;7.25;;;;;16.30;96076.00;;;;8248383;28;20215;-66
2023/05/01 15:42:11;;;;;;;11.70;8.35;;;;;16.40;96076.00;;;;8241601;28;20203;-66
2023/05/01 15:46:15;;;;;;;11.68;8.35;;;;;16.40;96073.00;;;;8242852;28;20204;-65
2023/05/01 15:50:22;;;;;;;10.13;8.45;;;;;16.40;96073.00;;;;8246081;28;20703;-65
2023/05/01 15:54:26;;;;;;;13.85;8.52;;;;;16.50;96079.00;;;;8253160;28;20704;-65
2023/05/01 15:58:33;;;;;;;12.20;8.63;;;;;16.50;96073.00;;;;8245307;28;20269;-66
2023/05/01 16:02:36;;;;;;;12.15;7.40;;;;;16.40;96086.00;;;;8251478;28;20262;-65
2023/05/01 16:06:40;;;;;;;19.15;12.93;;;;;16.30;96073.00;;;;8246019;28;20207;-66
2023/05/01 16:10:45;;;;;;;13.15;8.43;;;;;16.30;96077.00;;;;8246368;28;20280;-65
2023/05/01 16:14:49;;;;;;;11.05;8.82;;;;;16.50;96070.00;;;;8245780;28;20204;-65
2023/05/01 16:18:55;;;;;;;12.45;10.43;;;;;16.70;96081.00;;;;8250175;28;20668;-66
2023/05/01 16:22:59;;;;;;;10.60;7.00;;;;;16.90;96073.00;;;;8247117;28;20306;-68
2023/05/01 16:27:10;;;;;;;11.02;7.45;;;;;17.10;96084.00;;;;8255116;28;20203;-69
2023/05/01 16:31:18;;;;;;;10.32;8.13;;;;;17.50;96083.00;;;;8245635;28;20223;-72
2023/05/01 16:35:30;;;;;;;8.52;7.07;;;;;17.70;96082.00;;;;8244753;28;20238;-70
2023/05/01 16:39:37;;;;;;;8.43;6.93;;;;;17.80;96087.00;;;;8247335;28;20232;-71
2023/05/01 16:43:40;;;;;;;9.50;6.88;;;;;17.60;96078.00;;;;8254635;28;20205;-73
2023/05/01 16:47:44;;;;;;;9.45;6.55;;;;;17.60;96075.00;;;;8252318;28;20253;-73
2023/05/01 16:51:48;;;;;;;8.40;7.22;;;;;17.70;96074.00;;;;8245794;28;20222;-71
2023/05/01 16:55:51;;;;;;;10.27;6.90;;;;;17.70;96081.00;;;;8246047;28;20549;-69
2023/05/01 16:59:56;;;;;;;14.35;7.35;;;;;17.50;96079.00;;;;8245694;28;20237;-70
2023/05/01 17:04:01;;;;;;;8.20;7.18;;;;;17.50;96082.00;;;;8249478;28;20568;-69
2023/05/01 17:08:05;;;;;;;8.15;7.03;;;;;17.40;96090.00;;;;8243111;28;20213;-68
2023/05/01 17:12:08;;;;;;;10.30;7.07;;;;;17.30;96100.00;;;;8247415;28;20937;-70
2023/05/01 17:16:11;;;;;;;8.07;6.57;;;;;17.20;96095.00;;;;8248218;28;20203;-69
2023/05/01 17:20:16;;;;;;;10.02;7.40;;;;;17.10;96095.00;;;;8246090;28;20205;-69
2023/05/01 17:24:21;;;;;;;11.27;7.38;;;;;17.00;96091.00;;;;8245488;28;20195;-71
2023/05/01 17:28:25;;;;;;;8.70;7.00;;;;;16.70;96094.00;;;;8240775;28;20260;-74
2023/05/01 17:32:30;;;;;;;9.57;7.00;;;;;16.50;96088.00;;;;8321424;22;20268;-66
2023/05/01 17:36:43;;;;;;;10.95;7.38;;;;;16.40;96099.00;;;;8266345;28;20210;-66
2023/05/01 17:40:54;;;;;;;13.73;7.80;;;;;16.20;96103.00;;;;8284797;28;20198;-67
2023/05/01 17:45:02;;;;;;;9.35;7.22;;;;;16.00;96098.00;;;;8270754;28;20224;-64
2023/05/01 17:49:06;;;;;;;9.38;7.30;;;;;15.80;96109.00;;;;8280473;28;20284;-64
2023/05/01 17:53:13;;;;;;;10.02;8.07;;;;;15.60;96107.00;;;;8271028;28;20198;-67
2023/05/01 17:57:17;;;;;;;10.23;8.38;;;;;15.60;96104.00;;;;8266830;28;20210;-67
2023/05/01 18:01:20;;;;;;;10.82;8.30;;;;;15.40;96106.00;;;;8282091;28;20198;-66
2023/05/01 18:05:25;;;;;;;11.98;8.48;;;;;15.20;96112.00;;;;8275772;28;20690;-65
2023/05/01 18:09:32;;;;;;;11.05;8.25;;;;;15.10;96121.00;;;;8272211;28;20937;-65
2023/05/01 18:13:38;;;;;;;14.75;8.45;;;;;14.90;96115.00;;;;8273998;28;20240;-67
2023/05/01 18:17:47;;;;;;;13.63;8.88;;;;;14.80;96123.00;;;;8271995;28;20686;-66
2023/05/01 18:22:05;;;;;;;10.60;7.93;;;;;14.60;96124.00;;;;8278514;28;20682;-67
2023/05/01 18:26:10;;;;;;;11.13;7.95;;;;;14.30;96131.00;;;;8279396;28;20730;-64
2023/05/01 18:30:14;;;;;;;9.60;7.80;;;;;13.90;96126.00;;;;8273088;28;20218;-65
2023/05/01 18:34:17;;;;;;;12.07;8.07;;;;;13.70;96126.00;;;;8279822;28;20757;-68
2023/05/01 18:38:23;;;;;;;11.02;8.50;;;;;13.40;96127.00;;;;8259508;28;20213;-68
2023/05/01 18:42:31;;;;;;;9.35;7.97;;;;;13.10;96136.00;;;;8279832;28;20655;-65
2023/05/01 18:46:35;;;;;;;12.10;8.10;;;;;13.10;96145.00;;;;8271941;28;20201;-64
2023/05/01 18:50:39;;;;;;;11.43;8.52;;;;;13.10;96146.00;;;;8276613;28;20240;-66
2023/05/01 18:54:42;;;;;;;11.55;9.20;;;;;13.20;96159.00;;;;8277432;28;20646;-66
2023/05/01 18:58:49;;;;;;;13.52;9.93;;;;;13.20;96160.00;;;;8276762;28;20194;-64
2023/05/01 19:02:52;;;;;;;14.52;8.98;;;;;13.10;96164.00;;;;8271413;28;20626;-64
2023/05/01 19:06:56;;;;;;;13.30;9.55;;;;;13.00;96174.00;;;;8274342;28;20285;-67
2023/05/01 19:11:02;;;;;;;13.88;9.68;;;;;13.00;96177.00;;;;8270267;28;20278;-67
2023/05/01 19:15:17;;;;;;;12.88;9.45;;;;;13.00;96185.00;;;;8268874;28;20301;-69
2023/05/01 19:19:23;;;;;;;14.00;9.50;;;;;13.00;96186.00;;;;8269047;28;20244;-68
2023/05/01 19:23:29;;;;;;;13.43;9.48;;;;;13.00;96188.00;;;;8248022;28;20191;-63
2023/05/01 19:27:39;;;;;;;14.27;10.02;;;;;13.10;96189.00;;;;8272530;28;20238;-69
2023/05/01 19:31:43;;;;;;;18.20;11.48;;;;;13.10;96198.00;;;;8285575;28;20763;-70
2023/05/01 19:35:49;;;;;;;22.25;12.43;;;;;13.00;96198.00;;;;8283544;28;20702;-63
2023/05/01 19:39:54;;;;;;;23.92;14.40;;;;;12.90;96206.00;;;;8269828;28;20207;-66
2023/05/01 19:43:58;;;;;;;24.25;13.82;;;;;12.80;96200.00;;;;8285966;28;20208;-65
2023/05/01 19:48:06;;;;;;;23.73;14.88;;;;;12.70;96204.00;;;;8275009;28;20363;-64
2023/05/01 19:52:10;;;;;;;21.85;13.88;;;;;12.70;96197.00;;;;8280107;28;20582;-63
2023/05/01 19:56:20;;;;;;;22.60;13.63;;;;;12.70;96206.00;;;;8266434;28;20201;-65
2023/05/01 20:00:24;;;;;;;27.00;13.70;;;;;12.70;96217.00;;;;8279327;28;20229;-64
2023/05/01 20:04:28;;;;;;;23.45;14.07;;;;;12.70;96216.00;;;;8279501;28;20325;-64
2023/05/01 20:08:33;;;;;;;22.10;15.05;;;;;12.70;96214.00;;;;8277348;28;20208;-65
2023/05/01 20:12:38;;;;;;;24.67;15.82;;;;;12.70;96215.00;;;;8275844;28;20254;-64
2023/05/01 20:16:45;;;;;;;26.60;16.30;;;;;12.70;96228.00;;;;8282763;28;20201;-64
2023/05/01 20:20:51;;;;;;;22.45;14.38;;;;;12.60;96222.00;;;;8278144;28;20790;-64
2023/05/01 20:24:54;;;;;;;27.55;15.82;;;;;12.60;96236.00;;;;8283192;28;20197;-65
2023/05/01 20:29:00;;;;;;;24.92;15.35;;;;;12.50;96219.00;;;;8276532;28;20203;-68
2023/05/01 20:33:05;;;;;;;26.45;15.60;;;;;12.40;96233.00;;;;8272673;28;20580;-67
2023/05/01 20:37:10;;;;;;;27.95;15.23;;;;;12.30;96230.00;;;;8272709;28;20609;-64
2023/05/01 20:41:16;;;;;;;29.40;16.35;;;;;12.20;96236.00;;;;8272060;28;20205;-65
2023/05/01 20:45:19;;;;;;;26.92;16.35;;;;;12.00;96238.00;;;;8278241;28;20229;-64
2023/05/01 20:49:22;;;;;;;25.70;15.27;;;;;11.90;96235.00;;;;8278318;28;20199;-64
2023/05/01 20:53:27;;;;;;;25.35;15.55;;;;;11.80;96239.00;;;;8283108;28;20226;-66
2023/05/01 20:57:31;;;;;;;25.85;15.30;;;;;11.70;96236.00;;;;8283555;28;20714;-63
2023/05/01 21:01:34;;;;;;;25.33;15.25;;;;;11.60;96243.00;;;;8285038;28;20295;-66
2023/05/01 21:05:40;;;;;;;28.20;15.75;;;;;11.50;96234.00;;;;8279381;28;20878;-63
2023/05/01 21:09:45;;;;;;;24.35;15.23;;;;;11.40;96240.00;;;;8281896;28;20202;-67
2023/05/01 21:13:48;;;;;;;25.83;15.88;;;;;11.30;96239.00;;;;8277290;28;20224;-64
2023/05/01 21:17:54;;;;;;;32.58;16.50;;;;;11.30;96248.00;;;;8285064;28;20213;-66
2023/05/01 21:21:58;;;;;;;29.55;17.10;;;;;11.20;96246.00;;;;8286093;28;20206;-68
2023/05/01 21:26:02;;;;;;;31.58;16.88;;;;;11.10;96253.00;;;;8281196;28;20209;-66